createdAt,value
2022-10-01T00:02:01.398Z,92.67
2022-10-01T00:05:03.981Z,91.47
2022-10-01T00:08:06.597Z,91.71
2022-10-01T00:11:14.105Z,91.72
2022-10-01T00:14:17.364Z,89.51
2022-10-01T00:17:33.718Z,92.45
2022-10-01T00:20:36.372Z,90.49
2022-10-01T00:23:39.289Z,91.81
2022-10-01T00:26:45.432Z,90.59
2022-10-01T00:29:47.958Z,90.75
2022-10-01T00:32:53.751Z,91.35
2022-10-01T00:35:56.900Z,91.07
2022-10-01T00:39:01.035Z,90.69
2022-10-01T00:42:06.344Z,90.20
2022-10-01T00:45:11.839Z,90.16
2022-10-01T00:48:14.418Z,90.99
2022-10-01T00:51:17.176Z,90.35
2022-10-01T00:54:24.092Z,90.94
2022-10-01T00:57:28.516Z,90.84
2022-10-01T01:00:32.028Z,89.75
2022-10-01T01:03:34.694Z,91.76
2022-10-01T01:06:37.617Z,91.74
2022-10-01T01:09:44.687Z,89.74
2022-10-01T01:13:06.020Z,91.23
2022-10-01T01:16:14.085Z,90.13
2022-10-01T01:19:35.026Z,91.35
2022-10-01T01:22:42.074Z,91.74
2022-10-01T01:25:48.949Z,90.83
2022-10-01T01:28:58.277Z,90.92
2022-10-01T01:32:09.418Z,91.73
2022-10-01T01:35:22.369Z,91.30
2022-10-01T01:38:29.128Z,91.83
2022-10-01T01:41:36.703Z,91.98
2022-10-01T01:44:46.915Z,91.81
2022-10-01T01:47:50.352Z,91.95
2022-10-01T01:50:58.343Z,91.92
2022-10-01T01:54:01.303Z,91.25
2022-10-01T01:57:05.051Z,90.99
2022-10-01T02:00:11.392Z,89.51
2022-10-01T02:03:13.971Z,89.05
2022-10-01T02:06:29.019Z,89.88
2022-10-01T02:09:35.961Z,89.90
2022-10-01T02:12:49.936Z,90.42
2022-10-01T02:16:04.193Z,89.53
2022-10-01T02:19:18.600Z,90.43
2022-10-01T02:22:24.526Z,89.79
2022-10-01T02:25:32.989Z,89.09
2022-10-01T02:28:40.245Z,90.41
2022-10-01T02:31:46.310Z,89.27
2022-10-01T02:34:51.068Z,90.04
2022-10-01T02:37:55.545Z,90.31
2022-10-01T02:41:03.194Z,89.29
2022-10-01T02:44:10.974Z,89.46
2022-10-01T02:47:21.174Z,90.26
2022-10-01T02:50:27.933Z,89.42
2022-10-01T02:53:36.176Z,88.96
2022-10-01T02:56:58.269Z,89.70
2022-10-01T03:00:03.473Z,91.41
2022-10-01T03:03:07.342Z,89.91
2022-10-01T03:06:09.811Z,89.49
2022-10-01T03:09:12.306Z,89.51
2022-10-01T03:12:15.562Z,89.96
2022-10-01T03:15:20.000Z,88.71
2022-10-01T03:18:23.897Z,90.01
2022-10-01T03:21:26.840Z,90.03
2022-10-01T03:24:29.438Z,90.34
2022-10-01T03:27:32.010Z,89.02
2022-10-01T03:30:34.646Z,89.82
2022-10-01T03:33:38.735Z,88.78
2022-10-01T03:36:41.275Z,90.96
2022-10-01T03:39:43.748Z,90.52
2022-10-01T03:42:46.234Z,88.70
2022-10-01T03:45:48.956Z,89.52
2022-10-01T03:48:53.317Z,89.51
2022-10-01T03:51:56.450Z,90.28
2022-10-01T03:55:00.618Z,90.91
2022-10-01T03:58:03.554Z,91.19
2022-10-01T04:01:06.097Z,90.78
2022-10-01T04:04:09.944Z,89.17
2022-10-01T04:07:12.419Z,90.67
2022-10-01T04:10:15.102Z,90.47
2022-10-01T04:13:18.466Z,91.16
2022-10-01T04:16:21.156Z,91.38
2022-10-01T04:19:25.171Z,91.48
2022-10-01T04:22:27.662Z,92.42
2022-10-01T04:25:30.934Z,93.26
2022-10-01T04:28:33.440Z,95.01
2022-10-01T04:31:37.929Z,93.68
2022-10-01T04:34:53.875Z,95.95
2022-10-01T04:37:58.346Z,97.50
2022-10-01T04:41:00.830Z,98.09
2022-10-01T04:44:03.870Z,98.49
2022-10-01T04:47:06.528Z,99.91
2022-10-01T04:50:10.669Z,100.00
2022-10-01T04:53:13.191Z,100.00
2022-10-01T04:56:15.696Z,100.00
2022-10-01T04:59:18.301Z,100.00
2022-10-01T05:02:21.231Z,100.00
2022-10-01T05:05:28.070Z,100.00
2022-10-01T05:08:31.155Z,100.00
2022-10-01T05:11:34.682Z,100.00
2022-10-01T05:14:37.394Z,100.00
2022-10-01T05:17:39.908Z,100.00
2022-10-01T05:20:43.798Z,100.00
2022-10-01T05:23:46.310Z,100.00
2022-10-01T05:26:48.783Z,100.00
2022-10-01T05:29:51.256Z,100.00
2022-10-01T05:32:57.739Z,100.00
2022-10-01T05:36:01.869Z,100.00
2022-10-01T05:39:04.625Z,100.00
2022-10-01T05:42:07.127Z,100.00
2022-10-01T05:45:11.108Z,100.00
2022-10-01T05:48:13.755Z,100.00
2022-10-01T05:51:18.798Z,100.00
2022-10-01T05:54:23.152Z,100.00
2022-10-01T05:57:25.714Z,100.00
2022-10-01T06:00:29.544Z,100.00
2022-10-01T06:03:32.250Z,100.00
2022-10-01T06:06:36.066Z,100.00
2022-10-01T06:09:38.536Z,100.00
2022-10-01T06:12:41.208Z,100.00
2022-10-01T06:15:43.699Z,100.00
2022-10-01T06:18:48.437Z,100.00
2022-10-01T06:21:52.697Z,100.00
2022-10-01T06:24:57.615Z,100.00
2022-10-01T06:28:00.763Z,100.00
2022-10-01T06:31:03.982Z,100.00
2022-10-01T06:34:06.578Z,100.00
2022-10-01T06:37:10.525Z,100.00
2022-10-01T06:40:13.091Z,100.00
2022-10-01T06:43:15.547Z,100.00
2022-10-01T06:46:18.065Z,100.00
2022-10-01T06:49:22.092Z,100.00
2022-10-01T06:52:43.642Z,100.00
2022-10-01T06:55:46.492Z,100.00
2022-10-01T06:58:48.976Z,100.00
2022-10-01T07:01:56.400Z,100.00
2022-10-01T07:04:59.684Z,100.00
2022-10-01T07:08:04.180Z,100.00
2022-10-01T07:11:09.708Z,100.00
2022-10-01T07:14:12.190Z,100.00
2022-10-01T07:17:14.694Z,100.00
2022-10-01T07:20:18.071Z,100.00
2022-10-01T07:23:24.349Z,100.00
2022-10-01T07:26:26.844Z,100.00
2022-10-01T07:29:30.769Z,100.00
2022-10-01T07:32:35.214Z,100.00
2022-10-01T07:35:38.087Z,100.00
2022-10-01T07:38:43.482Z,100.00
2022-10-01T07:41:45.987Z,100.00
2022-10-01T07:44:48.529Z,100.00
2022-10-01T07:47:54.346Z,100.00
2022-10-01T07:50:57.726Z,100.00
2022-10-01T07:54:01.537Z,100.00
2022-10-01T07:57:04.087Z,100.00
2022-10-01T08:00:08.466Z,100.00
2022-10-01T08:03:12.618Z,100.00
2022-10-01T08:06:15.144Z,100.00
2022-10-01T08:09:19.009Z,100.00
2022-10-01T08:12:21.480Z,100.00
2022-10-01T08:15:23.980Z,100.00
2022-10-01T08:18:26.528Z,100.00
2022-10-01T08:21:29.182Z,100.00
2022-10-01T08:24:34.682Z,100.00
2022-10-01T08:27:37.804Z,100.00
2022-10-01T08:30:42.379Z,100.00
2022-10-01T08:33:45.386Z,100.00
2022-10-01T08:36:51.882Z,100.00
2022-10-01T08:39:56.126Z,100.00
2022-10-01T08:43:06.108Z,100.00
2022-10-01T08:46:14.673Z,100.00
2022-10-01T08:49:21.665Z,100.00
2022-10-01T08:52:27.194Z,100.00
2022-10-01T08:55:36.544Z,100.00
2022-10-01T08:58:45.761Z,100.00
2022-10-01T09:01:48.487Z,100.00
2022-10-01T09:04:58.893Z,100.00
2022-10-01T09:08:16.974Z,100.00
2022-10-01T09:11:42.175Z,100.00
2022-10-01T09:15:04.418Z,100.00
2022-10-01T09:18:16.815Z,100.00
2022-10-01T09:21:21.470Z,100.00
2022-10-01T09:24:38.178Z,100.00
2022-10-01T09:27:41.992Z,100.00
2022-10-01T09:30:49.860Z,100.00
2022-10-01T09:33:58.967Z,100.00
2022-10-01T09:37:09.875Z,100.00
2022-10-01T09:40:17.943Z,100.00
2022-10-01T09:43:22.979Z,100.00
2022-10-01T09:46:26.559Z,100.00
2022-10-01T09:49:33.786Z,100.00
2022-10-01T09:52:39.741Z,100.00
2022-10-01T09:55:45.461Z,100.00
2022-10-01T09:58:56.308Z,100.00
2022-10-01T10:02:02.125Z,100.00
2022-10-01T10:05:06.871Z,100.00
2022-10-01T10:08:15.062Z,100.00
2022-10-01T10:11:23.610Z,100.00
2022-10-01T10:14:32.991Z,100.00
2022-10-01T10:17:37.781Z,100.00
2022-10-01T10:20:42.586Z,100.00
2022-10-01T10:23:50.491Z,100.00
2022-10-01T10:26:54.995Z,100.00
2022-10-01T10:30:06.744Z,100.00
2022-10-01T10:33:14.944Z,100.00
2022-10-01T10:36:17.738Z,100.00
2022-10-01T10:39:24.178Z,100.00
2022-10-01T10:42:27.575Z,100.00
2022-10-01T10:45:36.574Z,100.00
2022-10-01T10:48:44.418Z,100.00
2022-10-01T10:51:53.732Z,100.00
2022-10-01T10:54:57.722Z,100.00
2022-10-01T10:58:11.760Z,100.00
2022-10-01T11:01:19.577Z,100.00
2022-10-01T11:04:29.771Z,100.00
2022-10-01T11:07:33.282Z,100.00
2022-10-01T11:10:49.429Z,100.00
2022-10-01T11:14:09.581Z,100.00
2022-10-01T11:17:31.354Z,100.00
2022-10-01T11:20:41.080Z,100.00
2022-10-01T11:24:02.294Z,100.00
2022-10-01T11:27:12.349Z,100.00
2022-10-01T11:30:21.148Z,100.00
2022-10-01T11:33:35.720Z,100.00
2022-10-01T11:36:48.038Z,100.00
2022-10-01T11:39:56.397Z,100.00
2022-10-01T11:43:05.577Z,100.00
2022-10-01T11:46:12.978Z,100.00
2022-10-01T11:49:26.440Z,100.00
2022-10-01T11:52:36.279Z,100.00
2022-10-01T11:56:01.075Z,100.00
2022-10-01T11:59:07.102Z,100.00
2022-10-01T12:02:19.145Z,100.00
2022-10-01T12:05:26.645Z,100.00
2022-10-01T12:08:32.780Z,100.00
2022-10-01T12:11:41.780Z,100.00
2022-10-01T12:14:51.206Z,100.00
2022-10-01T12:17:58.236Z,100.00
2022-10-01T12:21:07.442Z,100.00
2022-10-01T12:24:15.047Z,100.00
2022-10-01T12:27:40.791Z,100.00
2022-10-01T12:30:49.648Z,98.31
2022-10-01T12:34:06.349Z,95.31
2022-10-01T12:37:22.213Z,95.04
2022-10-01T12:40:32.858Z,91.64
2022-10-01T12:43:55.576Z,89.85
2022-10-01T12:47:12.438Z,85.45
2022-10-01T12:50:28.137Z,88.09
2022-10-01T12:53:38.587Z,79.91
2022-10-01T12:56:48.113Z,86.58
2022-10-01T13:00:03.377Z,88.46
2022-10-01T13:03:36.785Z,93.04
2022-10-01T13:06:51.462Z,94.00
2022-10-01T13:10:05.868Z,98.02
2022-10-01T13:13:13.467Z,98.50
2022-10-01T13:16:28.831Z,100.00
2022-10-01T13:19:40.871Z,100.00
2022-10-01T13:22:48.189Z,100.00
2022-10-01T13:26:02.979Z,100.00
2022-10-01T13:29:25.435Z,100.00
2022-10-01T13:32:32.147Z,100.00
2022-10-01T13:35:39.149Z,100.00
2022-10-01T13:38:43.712Z,100.00
2022-10-01T13:41:47.998Z,100.00
2022-10-01T13:44:56.381Z,100.00
2022-10-01T13:48:07.804Z,100.00
2022-10-01T13:51:13.318Z,100.00
2022-10-01T13:54:27.590Z,100.00
2022-10-01T13:57:35.106Z,100.00
2022-10-01T14:00:49.082Z,100.00
2022-10-01T14:03:57.584Z,100.00
2022-10-01T14:07:04.526Z,100.00
2022-10-01T14:10:11.892Z,100.00
2022-10-01T14:13:38.455Z,100.00
2022-10-01T14:16:43.405Z,100.00
2022-10-01T14:19:46.937Z,100.00
2022-10-01T14:23:03.917Z,100.00
2022-10-01T14:26:18.997Z,100.00
2022-10-01T14:29:38.608Z,100.00
2022-10-01T14:32:59.317Z,100.00
2022-10-01T14:36:09.132Z,100.00
2022-10-01T14:39:16.519Z,100.00
2022-10-01T14:42:19.389Z,100.00
2022-10-01T14:45:23.317Z,100.00
2022-10-01T14:48:29.386Z,100.00
2022-10-01T14:51:32.064Z,100.00
2022-10-01T14:54:43.995Z,100.00
2022-10-01T14:57:49.419Z,100.00
2022-10-01T15:00:55.115Z,100.00
2022-10-01T15:03:57.731Z,100.00
2022-10-01T15:07:14.321Z,100.00
2022-10-01T15:10:19.377Z,100.00
2022-10-01T15:13:26.684Z,100.00
2022-10-01T15:16:33.146Z,100.00
2022-10-01T15:19:42.024Z,100.00
2022-10-01T15:22:47.928Z,100.00
2022-10-01T15:25:51.248Z,100.00
2022-10-01T15:29:03.526Z,100.00
2022-10-01T15:32:07.944Z,100.00
2022-10-01T15:35:13.826Z,100.00
2022-10-01T15:38:16.628Z,100.00
2022-10-01T15:41:32.597Z,100.00
2022-10-01T15:44:42.564Z,100.00
2022-10-01T15:47:52.181Z,100.00
2022-10-01T15:51:00.204Z,100.00
2022-10-01T15:54:08.270Z,100.00
2022-10-01T15:57:18.040Z,100.00
2022-10-01T16:00:26.703Z,100.00
2022-10-01T16:03:34.397Z,100.00
2022-10-01T16:06:40.654Z,100.00
2022-10-01T16:09:52.628Z,100.00
2022-10-01T16:12:55.133Z,100.00
2022-10-01T16:16:13.785Z,100.00
2022-10-01T16:19:29.881Z,100.00
2022-10-01T16:22:33.895Z,100.00
2022-10-01T16:25:44.630Z,100.00
2022-10-01T16:28:47.167Z,100.00
2022-10-01T16:31:51.375Z,100.00
2022-10-01T16:35:17.369Z,100.00
2022-10-01T16:38:19.859Z,100.00
2022-10-01T16:41:25.411Z,100.00
2022-10-01T16:44:28.443Z,100.00
2022-10-01T16:47:32.147Z,100.00
2022-10-01T16:50:36.006Z,100.00
2022-10-01T16:53:39.270Z,100.00
2022-10-01T16:56:41.787Z,100.00
2022-10-01T16:59:44.361Z,100.00
2022-10-01T17:02:47.107Z,100.00
2022-10-01T17:05:50.926Z,100.00
2022-10-01T17:08:53.422Z,100.00
2022-10-01T17:11:56.469Z,100.00
2022-10-01T17:14:59.178Z,100.00
2022-10-01T17:18:01.876Z,100.00
2022-10-01T17:21:06.485Z,100.00
2022-10-01T17:24:10.742Z,100.00
2022-10-01T17:27:13.266Z,100.00
2022-10-01T17:30:15.990Z,100.00
2022-10-01T17:33:20.114Z,100.00
2022-10-01T17:36:23.922Z,100.00
2022-10-01T17:39:26.579Z,100.00
2022-10-01T17:42:30.766Z,100.00
2022-10-01T17:45:33.302Z,100.00
2022-10-01T17:48:35.834Z,100.00
2022-10-01T17:51:39.670Z,100.00
2022-10-01T17:54:42.179Z,100.00
2022-10-01T17:57:44.658Z,100.00
2022-10-01T18:00:47.216Z,100.00
2022-10-01T18:03:54.773Z,100.00
2022-10-01T18:06:59.804Z,100.00
2022-10-01T18:10:02.411Z,100.00
2022-10-01T18:13:04.949Z,100.00
2022-10-01T18:16:11.118Z,100.00
2022-10-01T18:22:37.865Z,100.00
2022-10-01T18:25:40.414Z,100.00
2022-10-01T18:28:43.434Z,100.00
2022-10-01T18:31:46.664Z,100.00
2022-10-01T18:34:55.355Z,100.00
2022-10-01T18:38:03.629Z,100.00
2022-10-01T18:41:16.909Z,100.00
2022-10-01T18:44:21.258Z,100.00
2022-10-01T18:47:33.962Z,100.00
2022-10-01T18:50:44.029Z,100.00
2022-10-01T18:54:14.465Z,100.00
2022-10-01T18:57:31.924Z,100.00
2022-10-01T19:00:42.683Z,100.00
2022-10-01T19:04:13.931Z,100.00
2022-10-01T19:07:34.530Z,100.00
2022-10-01T19:10:42.173Z,100.00
2022-10-01T19:13:55.407Z,100.00
2022-10-01T19:17:06.893Z,100.00
2022-10-01T19:20:22.227Z,100.00
2022-10-01T19:23:40.685Z,100.00
2022-10-01T19:26:50.380Z,100.00
2022-10-01T19:30:04.324Z,100.00
2022-10-01T19:33:10.575Z,100.00
2022-10-01T19:36:22.781Z,100.00
2022-10-01T19:39:31.077Z,100.00
2022-10-01T19:42:39.552Z,100.00
2022-10-01T19:45:49.295Z,100.00
2022-10-01T19:48:58.651Z,100.00
2022-10-01T19:52:03.264Z,100.00
2022-10-01T19:55:13.882Z,100.00
2022-10-01T19:58:21.173Z,100.00
2022-10-01T20:01:38.468Z,100.00
2022-10-01T20:04:51.645Z,100.00
2022-10-01T20:08:01.311Z,100.00
2022-10-01T20:11:13.471Z,100.00
2022-10-01T20:14:55.925Z,100.00
2022-10-01T20:18:14.515Z,100.00
2022-10-01T20:21:26.828Z,100.00
2022-10-01T20:24:44.928Z,100.00
2022-10-01T20:27:54.826Z,100.00
2022-10-01T20:31:04.944Z,100.00
2022-10-01T20:34:17.257Z,100.00
2022-10-01T20:37:37.433Z,100.00
2022-10-01T20:40:45.432Z,100.00
2022-10-01T20:43:51.128Z,100.00
2022-10-01T20:47:00.675Z,100.00
2022-10-01T20:50:09.484Z,100.00
2022-10-01T20:53:24.790Z,100.00
2022-10-01T20:56:33.595Z,100.00
2022-10-01T20:59:41.037Z,100.00
2022-10-01T21:02:50.937Z,100.00
2022-10-01T21:05:58.498Z,100.00
2022-10-01T21:09:04.196Z,100.00
2022-10-01T21:12:16.088Z,100.00
2022-10-01T21:15:20.810Z,100.00
2022-10-01T21:18:38.778Z,100.00
2022-10-01T21:21:54.553Z,100.00
2022-10-01T21:25:04.290Z,100.00
2022-10-01T21:28:25.215Z,100.00
2022-10-01T21:31:41.624Z,100.00
2022-10-01T21:34:59.310Z,100.00
2022-10-01T21:38:11.197Z,100.00
2022-10-01T21:41:36.577Z,100.00
2022-10-01T21:45:10.018Z,100.00
2022-10-01T21:48:27.561Z,100.00
2022-10-01T21:51:46.181Z,100.00
2022-10-01T21:55:15.843Z,100.00
2022-10-01T21:58:34.407Z,100.00
2022-10-01T22:01:54.037Z,100.00
2022-10-01T22:05:02.286Z,100.00
2022-10-01T22:08:19.003Z,100.00
2022-10-01T22:11:24.312Z,100.00
2022-10-01T22:14:28.211Z,100.00
2022-10-01T22:17:34.513Z,100.00
2022-10-01T22:20:41.996Z,100.00
2022-10-01T22:23:53.584Z,100.00
2022-10-01T22:27:04.852Z,100.00
2022-10-01T22:30:11.833Z,100.00
2022-10-01T22:33:20.923Z,100.00
2022-10-01T22:36:30.934Z,100.00
2022-10-01T22:39:40.665Z,100.00
2022-10-01T22:42:55.923Z,100.00
2022-10-01T22:46:25.920Z,100.00
2022-10-01T22:49:39.809Z,100.00
2022-10-01T22:52:54.499Z,100.00
2022-10-01T22:55:58.625Z,100.00
2022-10-01T22:59:12.020Z,100.00
2022-10-01T23:02:24.417Z,100.00
2022-10-01T23:05:41.779Z,100.00
2022-10-01T23:08:51.360Z,100.00
2022-10-01T23:12:01.544Z,100.00
2022-10-01T23:15:18.262Z,100.00
2022-10-01T23:18:35.177Z,100.00
2022-10-01T23:21:46.942Z,100.00
2022-10-01T23:25:04.938Z,100.00
2022-10-01T23:28:23.278Z,100.00
2022-10-01T23:31:34.681Z,100.00
2022-10-01T23:34:47.418Z,100.00
2022-10-01T23:38:04.539Z,100.00
2022-10-01T23:41:15.181Z,100.00
2022-10-01T23:44:30.384Z,100.00
2022-10-01T23:47:39.147Z,100.00
2022-10-01T23:50:49.042Z,100.00
2022-10-01T23:53:58.440Z,100.00
2022-10-01T23:57:07.594Z,100.00
